ADDS METAR Data INFO
IDs: Format: Raw Decoded Include TAF

Data at: 1933 UTC 19 Jul 2018

KE80 191915Z AUTO 09007KT 10SM CLR 35/07 A3014 RMK AO2 LTG DSNT N THRU SE T03490072
KE80 191855Z AUTO 00000KT 10SM CLR 35/07 A3015 RMK AO2 LTG DSNT E T03450071
KE80 191835Z AUTO 12005KT 10SM CLR 34/08 A3016 RMK AO2 T03390075
KE80 191815Z AUTO 00000KT 10SM CLR 33/08 A3017 RMK AO2 T03300077
KE80 191755Z AUTO 25003KT 10SM CLR 33/08 A3018 RMK AO2 T03270079 10328 20185
KE80 191735Z AUTO 27003KT 10SM CLR 32/08 A3018 RMK AO2 T03190080
KE80 191715Z AUTO 00000KT 10SM CLR 31/08 A3019 RMK AO2 T03140077
KE80 191655Z AUTO 30004KT 10SM CLR 31/08 A3019 RMK AO2 T03120080
KE80 191635Z AUTO 00000KT 10SM CLR 30/08 A3020 RMK AO2 T02970082
KE80 191615Z AUTO 02004KT 10SM CLR 29/09 A3020 RMK AO2 T02940085
KE80 191555Z AUTO 32004KT 10SM CLR 29/09 A3020 RMK AO2 T02880090
KE80 191535Z AUTO 00000KT 10SM CLR 28/09 A3021 RMK AO2 T02790092
KE80 191515Z AUTO 00000KT 10SM CLR 27/10 A3021 RMK AO2 T02700099
KE80 191455Z AUTO 00000KT 10SM CLR 26/10 A3021 RMK AO2 T02640098
KE80 191435Z AUTO 00000KT 10SM CLR 26/10 A3021 RMK AO2 T02560096
KE80 191415Z AUTO 00000KT 10SM CLR 25/10 A3020 RMK AO2 T02530099
KE80 191355Z AUTO 00000KT 10SM CLR 24/11 A3020 RMK AO2 T02430110
KE80 191335Z AUTO 00000KT 10SM CLR 23/12 A3020 RMK AO2 T02330115
KE80 191315Z AUTO 00000KT 10SM CLR 22/12 A3019 RMK AO2 T02160119
KE80 191255Z AUTO 00000KT 10SM CLR 20/12 A3019 RMK AO2 T02000124
KE80 191235Z AUTO 00000KT 10SM CLR 19/12 A3018 RMK AO2 T01850118
KE80 191215Z AUTO 00000KT 10SM CLR 19/12 A3018 RMK AO2 T01880115
KE80 191155Z AUTO 00000KT 10SM CLR 20/11 A3017 RMK AO2 T02000113 10240 20186
KE80 191135Z AUTO 00000KT 10SM CLR 19/11 A3017 RMK AO2 T01920113
KE80 191115Z AUTO 00000KT 10SM CLR 20/12 A3016 RMK AO2 T02030115
KE80 191055Z AUTO 00000KT 10SM CLR 19/12 A3015 RMK AO2 T01940118
KE80 191035Z AUTO 25006KT 10SM CLR 20/12 A3015 RMK AO2 T02010120
KE80 191015Z AUTO 25004KT 10SM CLR 21/12 A3015 RMK AO2 T02090120
KE80 190955Z AUTO 24008KT 10SM CLR 22/12 A3014 RMK AO2 T02150118
KE80 190935Z AUTO 24009KT 10SM CLR 22/12 A3015 RMK AO2 T02200116
KE80 190915Z AUTO 23008KT 10SM CLR 22/12 A3014 RMK AO2 T02220115
KE80 190855Z AUTO 23008KT 10SM CLR 23/11 A3014 RMK AO2 T02290107
KE80 190835Z AUTO 22009KT 10SM CLR 23/11 A3014 RMK AO2 T02310106
KE80 190815Z AUTO 22009KT 10SM CLR 23/11 A3014 RMK AO2 T02270106
KE80 190755Z AUTO 23009KT 10SM CLR 21/11 A3014 RMK AO2 T02120113
KE80 190735Z AUTO 21004KT 10SM CLR 23/10 A3014 RMK AO2 T02250102
KE80 190715Z AUTO 18004KT 10SM CLR 23/11 A3014 RMK AO2 T02280108
KE80 190655Z AUTO 00000KT 10SM CLR 24/10 A3014 RMK AO2 T02400102
KE80 190635Z AUTO 00000KT 10SM CLR 24/10 A3014 RMK AO2 T02360104
KE80 190615Z AUTO 00000KT 10SM CLR 24/11 A3014 RMK AO2 T02360106
KE80 190555Z AUTO 20003KT 10SM CLR 24/11 A3014 RMK AO2 T02370110 10310 20235 403560183
KE80 190535Z AUTO 22006KT 10SM CLR 24/11 A3014 RMK AO2 T02370110
KE80 190515Z AUTO 23007KT 10SM CLR 24/11 A3014 RMK AO2 T02360114
KE80 190455Z AUTO 24007KT 10SM CLR 24/11 A3014 RMK AO2 T02400114
KE80 190435Z AUTO 25007KT 10SM CLR 25/10 A3014 RMK AO2 T02530100
KE80 190415Z AUTO 27007KT 10SM CLR 25/11 A3014 RMK AO2 T02510108
KE80 190355Z AUTO 24007KT 10SM CLR 26/11 A3014 RMK AO2 T02560107
KE80 190335Z AUTO 24007KT 10SM CLR 26/10 A3013 RMK AO2 T02610103
KE80 190315Z AUTO 25008KT 10SM CLR 27/11 A3012 RMK AO2 T02650106
KE80 190255Z AUTO 25008KT 10SM CLR 27/11 A3012 RMK AO2 LTG DSNT W T02680109
KE80 190235Z AUTO 26010KT 10SM CLR 28/10 A3012 RMK AO2 T02770103
KE80 190215Z AUTO 26009KT 10SM CLR 28/10 A3012 RMK AO2 T02820101
KE80 190155Z AUTO 26011KT 10SM CLR 29/10 A3012 RMK AO2 T02870101
KE80 190135Z AUTO 26013G17KT 10SM CLR 29/10 A3012 RMK AO2 T02940095
KE80 190115Z AUTO 25014KT 10SM CLR 30/11 A3012 RMK AO2 T03000110
KE80 190055Z AUTO 24008KT 10SM CLR 30/12 A3011 RMK AO2 T03020121
KE80 190035Z AUTO 24008KT 10SM CLR 31/11 A3011 RMK AO2 LTG DSNT SW T03050114
KE80 190015Z AUTO 26006KT 10SM CLR 31/10 A3011 RMK AO2 LTG DSNT SW AND W T03080097
KE80 182355Z AUTO 25010G18KT 10SM SCT100 31/09 A3012 RMK AO2 T03100085 10356 20300
KE80 182335Z AUTO 25015G25KT 10SM TS BKN100 31/10 A3012 RMK AO2 LTG DSNT SW AND W T03100100
KE80 182315Z AUTO 14003KT 10SM BKN110 33/06 A3011 RMK AO2 LTG DSNT SW AND W T03340062
KE80 182255Z AUTO 00000KT 10SM SCT110 34/05 A3012 RMK AO2 LTG DSNT SW AND W T03410050
KE80 182235Z AUTO 00000KT 10SM CLR 35/05 A3012 RMK AO2 T03510054
KE80 182215Z AUTO 30003KT 10SM CLR 35/06 A3012 RMK AO2 LTG DSNT NE AND W T03530059
KE80 182155Z AUTO 00000KT 10SM CLR 36/07 A3014 RMK AO2 LTG DSNT SW AND W T03550073
KE80 182135Z AUTO 23006KT 170V230 10SM SCT100 34/08 A3014 RMK AO2 LTG DSNT SW AND W T03420076
KE80 182115Z AUTO 05005KT 10SM CLR 35/08 A3015 RMK AO2 LTG DSNT SW AND W T03470081
KE80 182055Z AUTO 08004KT 10SM SCT120 33/09 A3016 RMK AO2 LTG DSNT W T03300088
KE80 182035Z AUTO 04006KT 10SM CLR 34/09 A3017 RMK AO2 LTG DSNT NW T03440088
KE80 182015Z AUTO 23005KT 10SM CLR 34/07 A3018 RMK AO2 LTG DSNT NW T03380073
KE80 181955Z AUTO 27003KT 10SM CLR 33/08 A3019 RMK AO2 LTG DSNT W T03330077
KE80 181935Z AUTO 31004KT 10SM SCT085 33/10 A3019 RMK AO2 LTG DSNT NW T03250098
KE80 181915Z AUTO 04005KT 10SM CLR 33/09 A3021 RMK AO2 T03280089
KE80 181855Z AUTO 05003KT 10SM CLR 32/10 A3022 RMK AO2 T03240098
KE80 181835Z AUTO 07006KT 10SM CLR 32/11 A3023 RMK AO2 T03210105
KE80 181755Z AUTO 02003KT 10SM CLR 31/10 A3024 RMK AO2 T03080102 10309 20185
KE80 181735Z AUTO 04004KT 10SM CLR 30/10 A3025 RMK AO2 T03040104
KE80 181715Z AUTO 00000KT 10SM CLR 30/10 A3026 RMK AO2 T02990100
KE80 181655Z AUTO 07004KT 10SM CLR 30/10 A3026 RMK AO2 T02960097
KE80 181635Z AUTO 00000KT 10SM CLR 29/10 A3026 RMK AO2 T02910099
KE80 181615Z AUTO 01003KT 10SM CLR 29/10 A3026 RMK AO2 T02850102
KE80 181555Z AUTO 00000KT 10SM CLR 28/11 A3027 RMK AO2 T02770105
KE80 181535Z AUTO 00000KT 10SM CLR 27/10 A3027 RMK AO2 T02710096
KE80 181515Z AUTO 00000KT 10SM CLR 26/10 A3028 RMK AO2 T02630096
KE80 181455Z AUTO 00000KT 10SM CLR 26/10 A3027 RMK AO2 T02600100
KE80 181435Z AUTO 00000KT 10SM CLR 25/10 A3027 RMK AO2 T02520100
KE80 181415Z AUTO 00000KT 10SM CLR 24/10 A3027 RMK AO2 T02440098
KE80 181355Z AUTO 00000KT 10SM CLR 23/10 A3027 RMK AO2 T02320095
KE80 181335Z AUTO 00000KT 10SM CLR 21/09 A3027 RMK AO2 T02070094
KE80 181315Z AUTO 00000KT 10SM CLR 20/09 A3026 RMK AO2 T01990093
KE80 181255Z AUTO 28004KT 10SM CLR 20/11 A3026 RMK AO2 T02010106
KE80 181235Z AUTO 00000KT 10SM SCT110 19/10 A3026 RMK AO2 T01900101
KE80 181215Z AUTO 00000KT 10SM SCT110 19/10 A3026 RMK AO2 T01860100
KE80 181155Z AUTO 00000KT 10SM CLR 19/09 A3025 RMK AO2 T01920094 10235 20183
KE80 181135Z AUTO 00000KT 10SM CLR 19/09 A3025 RMK AO2 T01860093
KE80 181115Z AUTO 00000KT 10SM CLR 19/09 A3023 RMK AO2 T01940086
KE80 181055Z AUTO 36003KT 10SM CLR 19/09 A3023 RMK AO2 T01900094
KE80 181035Z AUTO 00000KT 10SM CLR 20/09 A3023 RMK AO2 T02010094
KE80 181015Z AUTO 16004KT 10SM CLR 20/09 A3022 RMK AO2 T01960094
KE80 180955Z AUTO 16004KT 10SM CLR 21/09 A3022 RMK AO2 T02080092
KE80 180935Z AUTO 18003KT 10SM CLR 21/08 A3022 RMK AO2 T02130081
KE80 180915Z AUTO 19003KT 10SM CLR 21/08 A3022 RMK AO2 T02090078
KE80 180855Z AUTO 18005KT 10SM CLR 22/08 A3022 RMK AO2 T02190079
KE80 180835Z AUTO 21003KT 10SM CLR 22/08 A3023 RMK AO2 T02240082
KE80 180815Z AUTO 19004KT 10SM CLR 22/09 A3023 RMK AO2 T02180087
KE80 180755Z AUTO 00000KT 10SM CLR 21/09 A3024 RMK AO2 T02140091
KE80 180735Z AUTO 00000KT 10SM CLR 22/09 A3023 RMK AO2 T02160090